Time;durP1;ratioP1;P1;durP2;ratioP2;P2;SDS_P1;SDS_P2;PMS_P1;PMS_P2;Temp;Humidity;BMP_temperature;BMP_pressure;BME280_temperature;BME280_humidity;BME280_pressure;Samples;Min_cycle;Max_cycle;Signal;HPM_P1;HPM_P2
2022/10/29 00:00:52;;;;;;;;;13.50;11.50;;;;;20.97;64.91;101438.53;2097693;28;45832;-69
2022/10/29 00:01:52;;;;;;;;;15.20;13.80;;;;;20.98;64.87;101439.38;2116262;27;46500;-68
2022/10/29 00:02:52;;;;;;;;;13.50;13.50;;;;;20.97;65.08;101452.00;2121735;27;46684;-67
2022/10/29 00:03:53;;;;;;;;;14.00;13.25;;;;;20.96;64.37;101447.56;2120874;27;46392;-68
2022/10/29 00:04:53;;;;;;;;;12.25;12.25;;;;;20.96;64.31;101443.97;2113948;27;46263;-69
2022/10/29 00:06:05;;;;;;;;;14.00;14.00;;;;;20.95;64.86;101435.00;2118075;27;46414;-66
2022/10/29 00:07:05;;;;;;;;;13.40;12.40;;;;;20.95;64.30;101436.81;2121672;27;46349;-68
2022/10/29 00:08:05;;;;;;;;;17.50;17.50;;;;;20.95;64.41;101435.00;2121174;27;46653;-68
2022/10/29 00:09:06;;;;;;;;;14.33;14.00;;;;;20.96;64.91;101441.25;2122183;27;46252;-66
2022/10/29 00:10:07;;;;;;;;;13.50;13.25;;;;;20.96;64.37;101442.16;2118786;27;46465;-67
2022/10/29 00:11:13;;;;;;;;;17.00;15.60;;;;;20.99;64.41;101441.13;2108992;27;47999;-71
2022/10/29 00:12:13;;;;;;;;;14.80;12.40;;;;;20.98;64.45;101432.16;2106988;27;45667;-67
2022/10/29 00:13:14;;;;;;;;;14.25;13.25;;;;;20.97;64.91;101430.41;2106001;27;46651;-68
2022/10/29 00:14:14;;;;;;;;;15.25;15.25;;;;;20.97;64.49;101426.84;2108060;27;46303;-68
2022/10/29 00:15:15;;;;;;;;;14.25;13.25;;;;;20.96;64.70;101422.38;2114080;27;45485;-67
2022/10/29 00:16:22;;;;;;;;;15.75;12.50;;;;;20.96;64.84;101430.47;2112249;27;46626;-68
2022/10/29 00:17:22;;;;;;;;;13.60;13.60;;;;;20.96;64.39;101435.88;2107663;27;46057;-68
2022/10/29 00:18:22;;;;;;;;;13.00;12.00;;;;;20.95;64.51;101408.00;2115194;27;46960;-69
2022/10/29 00:19:23;;;;;;;;;14.00;14.00;;;;;20.94;64.29;101395.47;2113562;27;45558;-68
2022/10/29 00:20:23;;;;;;;;;15.00;15.00;;;;;20.94;64.38;101400.00;2121038;27;46314;-68
2022/10/29 00:21:25;;;;;;;;;13.75;13.00;;;;;20.92;64.36;101397.41;2113144;27;45696;-68
2022/10/29 00:22:25;;;;;;;;;15.60;15.00;;;;;20.93;64.52;101398.25;2105705;27;46301;-67
2022/10/29 00:23:25;;;;;;;;;13.00;13.00;;;;;20.92;64.27;101401.94;2120080;27;46500;-69
2022/10/29 00:24:25;;;;;;;;;15.00;13.25;;;;;20.92;64.82;101404.63;2117241;27;45963;-68
2022/10/29 00:25:26;;;;;;;;;11.33;11.33;;;;;20.92;64.62;101393.81;2116717;27;46644;-67
2022/10/29 00:26:28;;;;;;;;;14.00;14.00;;;;;20.92;64.43;101388.44;2119623;27;46679;-68
2022/10/29 00:27:29;;;;;;;;;15.20;13.80;;;;;20.91;64.73;101384.00;2114329;27;46580;-68
2022/10/29 00:28:29;;;;;;;;;12.00;10.50;;;;;20.91;64.54;101387.56;2117911;27;46663;-69
2022/10/29 00:29:30;;;;;;;;;12.50;12.50;;;;;20.90;64.18;101391.22;2117131;27;46128;-69
2022/10/29 00:30:30;;;;;;;;;15.25;13.25;;;;;20.92;64.23;101393.81;2114266;27;46732;-68
2022/10/29 00:31:30;;;;;;;;;12.50;12.50;;;;;20.91;64.83;101384.00;2114254;27;46417;-68
2022/10/29 00:32:31;;;;;;;;;15.25;13.75;;;;;20.91;64.45;101398.34;2111365;27;47179;-67
2022/10/29 00:33:31;;;;;;;;;11.00;11.00;;;;;20.92;64.83;101393.81;2107074;27;46302;-67
2022/10/29 00:34:32;;;;;;;;;14.00;12.33;;;;;20.92;64.17;101394.69;2114327;27;46419;-69
2022/10/29 00:35:32;;;;;;;;;15.25;15.25;;;;;20.93;64.39;101391.03;2118313;27;46220;-69
2022/10/29 00:36:32;;;;;;;;;12.00;12.00;;;;;20.93;64.04;101393.75;2117547;27;46291;-68
2022/10/29 00:37:34;;;;;;;;;14.25;14.25;;;;;20.94;64.51;101398.19;2121168;27;46233;-68
2022/10/29 00:38:35;;;;;;;;;13.20;11.60;;;;;20.95;64.32;101396.34;2114070;27;46353;-68
2022/10/29 00:39:35;;;;;;;;;16.60;15.00;;;;;20.95;64.29;101390.97;2116002;27;46702;-68
2022/10/29 00:40:36;;;;;;;;;14.75;14.25;;;;;20.96;64.05;101393.59;2122268;27;46269;-68
2022/10/29 00:41:36;;;;;;;;;13.20;11.00;;;;;20.96;64.60;101393.59;2115912;27;47188;-68
2022/10/29 00:42:37;;;;;;;;;15.50;13.75;;;;;20.96;64.14;101387.31;2114676;27;46259;-68
2022/10/29 00:43:42;;;;;;;;;12.75;12.25;;;;;20.95;64.09;101385.56;2119127;27;46421;-67
2022/10/29 00:44:42;;;;;;;;;14.20;14.00;;;;;20.95;63.90;101386.44;2122027;27;46394;-68
2022/10/29 00:46:24;;;;;;;;;12.75;11.00;;;;;20.95;64.45;101372.94;2112967;27;46771;-68
2022/10/29 00:47:35;;;;;;;;;17.80;15.60;;;;;20.94;64.33;101373.91;2092333;28;47106;-67
2022/10/29 00:48:42;;;;;;;;;15.20;10.60;;;;;20.94;63.97;101378.44;2087737;28;46796;-69
2022/10/29 00:49:46;;;;;;;;;13.60;12.80;;;;;20.93;63.79;101372.16;2088925;28;46884;-69
2022/10/29 00:50:47;;;;;;;;;12.80;10.00;;;;;20.93;64.02;101365.88;2089343;28;46525;-67
2022/10/29 00:51:48;;;;;;;;;16.00;12.40;;;;;20.93;64.42;101380.25;2078696;28;46548;-69
2022/10/29 00:52:49;;;;;;;;;12.50;11.50;;;;;20.93;64.37;101374.84;2078088;28;46822;-70
2022/10/29 00:54:15;;;;;;;;;16.20;14.00;;;;;20.94;64.16;101373.03;2089382;28;46284;-68
2022/10/29 00:55:18;;;;;;;;;8.75;8.75;;;;;20.94;64.00;101373.91;2092170;28;46791;-66
2022/10/29 00:56:20;;;;;;;;;12.75;12.00;;;;;20.95;64.23;101367.53;2095482;28;46855;-68
2022/10/29 00:57:27;;;;;;;;;13.00;13.00;;;;;20.96;64.15;101357.63;2093928;28;46557;-68
2022/10/29 00:58:28;;;;;;;;;15.00;15.00;;;;;20.96;64.01;101358.53;2095771;28;46911;-67
2022/10/29 00:59:28;;;;;;;;;13.25;12.00;;;;;20.95;64.15;101359.44;2094591;28;46302;-69
2022/10/29 01:00:29;;;;;;;;;14.00;12.67;;;;;20.95;64.28;101354.06;2074656;28;46634;-69
2022/10/29 01:01:29;;;;;;;;;15.00;13.33;;;;;20.96;64.28;101347.72;2080513;28;45728;-68
2022/10/29 01:02:34;;;;;;;;;15.33;15.33;;;;;20.98;64.34;101361.13;2093378;28;44985;-68
2022/10/29 01:03:34;;;;;;;;;14.00;12.25;;;;;20.97;63.92;101354.88;2093994;28;45618;-69
2022/10/29 01:04:35;;;;;;;;;12.67;12.67;;;;;20.97;63.93;101365.66;2087754;28;46614;-69
2022/10/29 01:05:37;;;;;;;;;15.25;14.75;;;;;20.97;63.69;101360.25;2084805;28;46128;-69
2022/10/29 01:06:38;;;;;;;;;14.50;12.00;;;;;20.98;63.59;101361.13;2085949;28;46546;-69
2022/10/29 01:07:38;;;;;;;;;13.67;12.67;;;;;20.97;63.89;101351.31;2090229;28;46587;-67
2022/10/29 01:08:38;;;;;;;;;14.00;14.00;;;;;20.97;63.53;101343.19;2089465;28;46685;-67
2022/10/29 01:09:39;;;;;;;;;17.67;13.67;;;;;20.96;63.66;101338.72;2090924;28;46664;-69
2022/10/29 01:10:39;;;;;;;;;13.00;12.33;;;;;20.95;64.02;101327.06;2089831;28;46109;-69
2022/10/29 01:11:48;;;;;;;;;10.67;10.67;;;;;20.95;63.49;101337.88;2091762;28;46523;-69
2022/10/29 01:13:04;;;;;;;;;11.00;10.25;;;;;20.94;63.88;101338.81;2095537;28;47708;-68
2022/10/29 01:14:27;;;;;;;;;9.75;8.50;;;;;20.93;63.46;101345.19;2092952;28;47251;-67
2022/10/29 01:15:45;;;;;;;;;13.75;13.75;;;;;20.92;64.05;101338.03;2087415;28;46920;-68
2022/10/29 01:16:48;;;;;;;;;16.00;15.40;;;;;20.91;63.35;101339.00;2087791;28;46657;-68
2022/10/29 01:18:17;;;;;;;;;14.00;12.75;;;;;20.89;63.98;101332.81;2091241;28;45915;-67
2022/10/29 01:19:41;;;;;;;;;16.25;15.50;;;;;20.89;63.23;101324.72;2078454;28;46795;-68
2022/10/29 01:21:18;;;;;;;;;14.25;14.25;;;;;20.88;63.89;101324.81;2078822;28;46412;-69
2022/10/29 01:22:41;;;;;;;;;13.20;13.20;;;;;20.88;63.84;101327.50;2085484;28;46428;-68
2022/10/29 01:24:03;;;;;;;;;12.80;11.40;;;;;20.89;63.62;101323.84;2081985;28;46588;-69
2022/10/29 01:25:40;;;;;;;;;12.50;12.50;;;;;20.88;63.97;101325.69;2087161;28;47007;-69
2022/10/29 01:27:06;;;;;;;;;11.75;11.75;;;;;20.89;63.38;101326.56;2087334;28;45746;-69
2022/10/29 01:28:44;;;;;;;;;14.25;13.25;;;;;20.90;63.51;101326.47;2076391;28;47211;-68
2022/10/29 01:30:03;;;;;;;;;15.00;13.00;;;;;20.91;63.49;101324.63;2075908;28;45915;-67
2022/10/29 01:31:18;;;;;;;;;13.75;13.25;;;;;20.91;63.80;101330.91;2079807;28;46670;-67
2022/10/29 01:32:23;;;;;;;;;14.00;13.00;;;;;20.92;62.92;101320.97;2078924;28;46327;-67
2022/10/29 01:33:28;;;;;;;;;11.75;11.75;;;;;20.91;63.17;101325.50;2078811;28;46719;-69
2022/10/29 01:34:34;;;;;;;;;7.75;5.25;;;;;20.91;63.66;101328.19;2078790;28;47026;-71
2022/10/29 01:36:05;;;;;;;;;11.60;11.20;;;;;20.89;63.25;101324.72;2078741;28;46929;-68
2022/10/29 01:37:19;;;;;;;;;10.00;10.00;;;;;20.90;63.33;101318.38;2078550;28;46219;-68
2022/10/29 01:38:51;;;;;;;;;11.50;11.50;;;;;20.90;63.38;101318.38;2078187;28;46225;-68
2022/10/29 01:39:59;;;;;;;;;13.40;12.40;;;;;20.90;63.27;101317.50;2057771;28;46954;-67
2022/10/29 01:41:24;;;;;;;;;13.80;13.80;;;;;20.93;62.89;101309.22;2062368;28;46695;-66
2022/10/29 01:42:30;;;;;;;;;14.00;13.00;;;;;20.92;62.94;101305.66;2062457;28;45684;-70
2022/10/29 01:43:43;;;;;;;;;12.00;12.00;;;;;20.93;62.68;101306.53;2057633;28;45269;-68
2022/10/29 01:44:49;;;;;;;;;11.00;11.00;;;;;20.92;62.80;101302.09;2057911;28;46736;-68
2022/10/29 01:46:05;;;;;;;;;10.00;9.50;;;;;20.92;63.35;101299.41;2056848;28;46508;-68
2022/10/29 01:47:13;;;;;;;;;11.00;11.00;;;;;20.92;63.35;101299.41;2056763;28;46822;-68
2022/10/29 01:48:18;;;;;;;;;12.00;11.75;;;;;20.92;63.08;101299.41;2058401;28;46924;-68
2022/10/29 01:49:27;;;;;;;;;11.00;10.25;;;;;20.91;62.96;101308.44;2062975;28;45957;-69
2022/10/29 01:50:28;;;;;;;;;13.50;13.00;;;;;20.89;63.13;101302.28;2062709;28;46873;-68
2022/10/29 01:51:31;;;;;;;;;10.67;10.00;;;;;20.88;62.96;101297.84;2062959;28;46399;-68
2022/10/29 01:52:34;;;;;;;;;12.40;11.40;;;;;20.88;62.75;101284.34;2038342;28;46501;-69
2022/10/29 01:53:36;;;;;;;;;11.75;10.75;;;;;20.88;62.91;101279.81;2038863;28;46926;-68
2022/10/29 01:54:42;;;;;;;;;12.50;12.50;;;;;20.88;62.60;101282.50;2062398;28;46743;-68
2022/10/29 01:55:43;;;;;;;;;11.25;10.00;;;;;20.86;62.80;101269.13;2057127;28;47033;-68
2022/10/29 01:56:51;;;;;;;;;12.00;11.00;;;;;20.87;63.04;101269.97;2060473;28;46402;-68
2022/10/29 01:57:52;;;;;;;;;13.40;11.60;;;;;20.88;62.58;101269.03;2070164;28;46983;-67
2022/10/29 01:58:57;;;;;;;;;10.67;10.67;;;;;20.88;62.47;101269.03;2070487;28;45518;-68
2022/10/29 02:00:53;;;;;;;;;11.75;11.75;;;;;20.86;63.09;101262.84;2070115;28;46433;-68
2022/10/29 02:02:17;;;;;;;;;13.00;13.00;;;;;20.86;62.54;101265.56;2035070;28;46192;-67
2022/10/29 02:03:56;;;;;;;;;12.20;11.40;;;;;20.84;62.89;101268.34;2030163;28;47056;-68
2022/10/29 02:05:08;;;;;;;;;14.25;13.25;;;;;20.84;62.99;101270.16;2019471;29;46935;-68
2022/10/29 02:06:30;;;;;;;;;10.50;9.75;;;;;20.82;62.38;101262.13;2014392;29;46652;-68
2022/10/29 02:07:44;;;;;;;;;12.25;11.25;;;;;20.81;62.56;101259.53;2014324;29;45169;-68
2022/10/29 02:08:55;;;;;;;;;10.25;10.25;;;;;20.78;62.43;101252.47;2014923;29;46532;-69
2022/10/29 02:10:20;;;;;;;;;12.75;12.75;;;;;20.77;62.31;101241.78;2015950;29;46454;-68
2022/10/29 02:11:26;;;;;;;;;10.75;10.25;;;;;20.75;62.20;101235.59;2014216;29;47006;-67
2022/10/29 02:12:36;;;;;;;;;14.75;14.25;;;;;20.73;62.23;101227.59;2014723;29;46354;-68
2022/10/29 02:13:48;;;;;;;;;10.00;10.00;;;;;20.73;62.92;101234.81;2014642;29;46131;-68
2022/10/29 02:15:03;;;;;;;;;14.25;13.50;;;;;20.71;62.74;101237.59;2014660;29;47123;-67
2022/10/29 02:16:06;;;;;;;;;14.50;14.50;;;;;20.69;62.92;101231.41;2010883;29;46596;-68
2022/10/29 02:17:06;;;;;;;;;11.25;11.00;;;;;20.70;63.03;101229.56;2018182;28;46277;-67
2022/10/29 02:18:08;;;;;;;;;11.33;10.67;;;;;20.69;62.54;101228.69;2046172;28;46295;-66
2022/10/29 02:19:08;;;;;;;;;15.25;14.25;;;;;20.69;62.88;101223.31;2045821;28;47204;-69
2022/10/29 02:20:11;;;;;;;;;11.33;9.67;;;;;20.69;62.87;101223.31;2046397;28;45984;-69
2022/10/29 02:21:20;;;;;;;;;13.50;11.50;;;;;20.69;62.40;101217.03;2045744;28;46936;-68
2022/10/29 02:22:20;;;;;;;;;14.25;12.25;;;;;20.69;62.18;101209.81;2046036;28;46660;-68
2022/10/29 02:23:21;;;;;;;;;10.00;10.00;;;;;20.70;62.39;101216.09;2040849;28;47121;-70
2022/10/29 02:24:21;;;;;;;;;9.33;9.33;;;;;20.69;62.82;101222.44;2046079;28;46269;-68
2022/10/29 02:25:22;;;;;;;;;10.00;10.00;;;;;20.69;62.31;101217.91;2045636;28;46309;-68
2022/10/29 02:26:22;;;;;;;;;13.67;13.67;;;;;20.68;62.27;101221.56;2045726;28;46621;-69
2022/10/29 02:27:23;;;;;;;;;13.00;10.00;;;;;20.68;62.55;101218.00;2045949;28;46273;-69
2022/10/29 02:28:23;;;;;;;;;14.33;13.67;;;;;20.66;62.29;101231.56;2045311;28;46860;-69
2022/10/29 02:29:23;;;;;;;;;12.00;11.00;;;;;20.66;62.23;101225.31;2045601;28;46634;-69
2022/10/29 02:30:24;;;;;;;;;10.67;10.67;;;;;20.65;62.71;101229.84;2023419;29;46772;-70
2022/10/29 02:31:24;;;;;;;;;13.00;11.00;;;;;20.65;62.60;101223.56;2024846;29;46456;-69
2022/10/29 02:32:24;;;;;;;;;12.33;11.33;;;;;20.65;62.36;101224.44;2040600;28;46995;-69
2022/10/29 02:33:25;;;;;;;;;12.67;11.67;;;;;20.65;61.84;101227.13;2045167;28;45997;-69
2022/10/29 02:34:25;;;;;;;;;13.33;11.00;;;;;20.65;62.06;101220.88;2045893;28;45268;-69
2022/10/29 02:35:25;;;;;;;;;12.00;12.00;;;;;20.65;62.30;101221.75;2045679;28;46447;-69
2022/10/29 02:36:26;;;;;;;;;15.33;14.33;;;;;20.64;62.16;101222.72;2045966;28;45839;-68
2022/10/29 02:37:27;;;;;;;;;13.67;12.67;;;;;20.64;62.05;101217.31;2046374;28;46572;-69
2022/10/29 02:38:27;;;;;;;;;13.25;13.25;;;;;20.65;62.52;101210.09;2060997;28;45136;-68
2022/10/29 02:39:27;;;;;;;;;11.67;11.00;;;;;20.65;62.10;101210.97;2072435;28;46212;-69
2022/10/29 02:40:28;;;;;;;;;14.67;14.00;;;;;20.66;62.14;101214.53;2099638;28;45861;-68
2022/10/29 02:41:28;;;;;;;;;13.00;13.00;;;;;20.64;61.97;101214.63;2098175;28;46138;-69
2022/10/29 02:42:28;;;;;;;;;10.33;9.67;;;;;20.64;62.08;101209.22;2109362;27;46226;-66
2022/10/29 02:43:28;;;;;;;;;10.67;10.33;;;;;20.63;62.56;101210.19;2113812;27;46371;-68
2022/10/29 02:44:29;;;;;;;;;13.33;12.00;;;;;20.64;61.93;101205.66;2113630;27;46695;-69
2022/10/29 02:45:29;;;;;;;;;10.67;10.67;;;;;20.64;62.13;101209.22;2121483;27;46431;-70
2022/10/29 02:46:30;;;;;;;;;11.00;11.00;;;;;20.64;62.33;101209.22;2118244;27;46552;-69
2022/10/29 02:47:30;;;;;;;;;10.00;10.00;;;;;20.64;62.00;101211.91;2121467;27;45673;-68
2022/10/29 02:48:30;;;;;;;;;14.67;12.00;;;;;20.66;62.64;101203.75;2115796;27;46294;-71
2022/10/29 02:49:31;;;;;;;;;14.33;11.67;;;;;20.65;61.99;101212.78;2102816;27;46635;-69
2022/10/29 02:50:31;;;;;;;;;16.33;13.67;;;;;20.65;62.33;101210.09;2111521;27;46801;-68
2022/10/29 02:51:32;;;;;;;;;9.00;8.00;;;;;20.64;62.43;101206.53;2113018;27;46461;-69
2022/10/29 02:52:32;;;;;;;;;11.33;9.33;;;;;20.63;62.01;101202.09;2112852;27;46804;-70
2022/10/29 02:53:32;;;;;;;;;12.00;12.00;;;;;20.63;62.30;101202.09;2118448;27;45352;-69
2022/10/29 02:54:33;;;;;;;;;11.67;10.67;;;;;20.63;61.89;101206.63;2119055;27;46218;-71
2022/10/29 02:55:33;;;;;;;;;12.00;11.33;;;;;20.62;62.49;101211.13;2116566;27;46689;-68
2022/10/29 02:56:33;;;;;;;;;14.33;10.33;;;;;20.62;61.95;101208.44;2116651;27;45463;-69
2022/10/29 02:57:34;;;;;;;;;10.00;10.00;;;;;20.61;62.09;101204.00;2119183;27;46520;-68
2022/10/29 02:58:35;;;;;;;;;11.33;10.67;;;;;20.61;61.98;101209.41;2121304;27;46586;-68
2022/10/29 02:59:35;;;;;;;;;11.50;10.75;;;;;20.60;62.51;101204.97;2119936;27;46707;-69
2022/10/29 03:00:35;;;;;;;;;9.33;9.33;;;;;20.61;62.43;101206.72;2118771;27;46519;-69
2022/10/29 03:01:36;;;;;;;;;17.67;15.00;;;;;20.61;62.00;101212.09;2118283;27;46866;-72
2022/10/29 03:02:36;;;;;;;;;12.33;11.33;;;;;20.61;61.81;101206.72;2114207;27;45967;-69
2022/10/29 03:03:36;;;;;;;;;15.33;13.00;;;;;20.61;62.12;101208.53;2121787;27;46080;-69
2022/10/29 03:04:38;;;;;;;;;10.33;10.33;;;;;20.61;62.59;101201.31;2121595;27;46105;-69
2022/10/29 03:05:38;;;;;;;;;11.25;9.75;;;;;20.61;62.17;101198.63;2121379;27;45684;-69
2022/10/29 03:06:39;;;;;;;;;13.00;12.00;;;;;20.61;62.64;101201.31;2103754;27;47059;-69
2022/10/29 03:07:39;;;;;;;;;9.67;9.67;;;;;20.62;61.97;101202.19;2097677;28;46632;-67
2022/10/29 03:08:39;;;;;;;;;12.00;11.00;;;;;20.64;62.09;101194.88;2109822;27;46685;-67
2022/10/29 03:09:40;;;;;;;;;12.67;11.67;;;;;20.64;62.54;101182.25;2112822;27;46324;-69
2022/10/29 03:10:40;;;;;;;;;13.67;13.00;;;;;20.62;62.00;101189.56;2114532;27;46913;-70
2022/10/29 03:11:41;;;;;;;;;11.00;10.00;;;;;20.62;62.07;101191.41;2115204;27;46331;-70
2022/10/29 03:12:41;;;;;;;;;12.00;12.00;;;;;20.62;62.16;101189.56;2108926;27;46440;-68
2022/10/29 03:13:42;;;;;;;;;13.00;11.00;;;;;20.62;62.18;101186.00;2112001;27;47087;-70
2022/10/29 03:14:42;;;;;;;;;9.50;8.75;;;;;20.63;61.93;101195.81;2112814;27;46468;-68
2022/10/29 03:15:44;;;;;;;;;10.33;10.33;;;;;20.64;61.86;101195.75;2114679;27;47059;-68
2022/10/29 03:16:44;;;;;;;;;13.75;12.25;;;;;20.63;62.31;101199.41;2121361;27;46420;-68
2022/10/29 03:17:44;;;;;;;;;15.33;14.00;;;;;20.63;62.41;101187.75;2120592;27;46483;-69
2022/10/29 03:18:45;;;;;;;;;10.33;10.33;;;;;20.64;62.54;101195.75;2112510;27;46605;-68
2022/10/29 03:19:45;;;;;;;;;12.33;12.00;;;;;20.63;62.41;101194.00;2116223;27;46128;-67
2022/10/29 03:20:46;;;;;;;;;13.33;11.33;;;;;20.64;62.03;101193.03;2120055;27;46646;-68
2022/10/29 03:21:46;;;;;;;;;13.25;12.75;;;;;20.64;61.86;101184.94;2114050;27;46729;-68
2022/10/29 03:22:47;;;;;;;;;12.00;11.67;;;;;20.64;62.02;101189.47;2118651;27;46461;-69
2022/10/29 03:23:47;;;;;;;;;12.33;11.00;;;;;20.67;61.98;101192.00;2118331;27;46292;-67
2022/10/29 03:24:47;;;;;;;;;8.00;8.00;;;;;20.67;62.54;101194.69;2117354;27;45877;-68
2022/10/29 03:25:52;;;;;;;;;14.33;13.00;;;;;20.69;61.98;101187.38;2119114;27;46142;-67
2022/10/29 03:26:52;;;;;;;;;10.25;10.25;;;;;20.70;62.15;101194.50;2112735;27;47016;-71
2022/10/29 03:27:52;;;;;;;;;12.00;11.00;;;;;20.70;62.11;101189.13;2114516;27;47349;-68
2022/10/29 03:28:54;;;;;;;;;8.00;7.67;;;;;20.70;62.10;101194.50;2094784;28;46413;-68
2022/10/29 03:29:54;;;;;;;;;11.25;9.75;;;;;20.69;61.72;101185.53;2102136;27;46737;-69
2022/10/29 03:30:56;;;;;;;;;7.00;7.00;;;;;20.69;62.12;101190.94;2119123;27;47118;-69
2022/10/29 03:31:56;;;;;;;;;9.50;9.50;;;;;20.69;62.28;101185.53;2120840;27;46172;-69
2022/10/29 03:32:57;;;;;;;;;12.33;10.67;;;;;20.69;61.84;101188.25;2102733;28;46397;-68
2022/10/29 03:33:57;;;;;;;;;11.00;11.00;;;;;20.70;61.96;101189.13;2102934;28;46241;-68
2022/10/29 03:34:57;;;;;;;;;10.00;10.00;;;;;20.69;61.83;101187.38;2121146;27;46290;-69
2022/10/29 03:36:00;;;;;;;;;13.33;13.00;;;;;20.68;62.34;101200.00;2120054;27;46475;-68
2022/10/29 03:37:00;;;;;;;;;12.00;10.75;;;;;20.68;61.66;101200.00;2113007;27;46799;-69
2022/10/29 03:38:00;;;;;;;;;14.00;13.33;;;;;20.68;61.72;101193.72;2117681;27;46352;-68
2022/10/29 03:39:00;;;;;;;;;13.00;12.00;;;;;20.67;61.55;101197.38;2117267;27;46863;-68
2022/10/29 03:40:01;;;;;;;;;10.33;10.33;;;;;20.66;62.06;101201.03;2100772;28;45925;-69
2022/10/29 03:41:07;;;;;;;;;13.00;10.33;;;;;20.66;61.79;101203.75;2102657;28;46459;-68
2022/10/29 03:42:07;;;;;;;;;11.50;10.75;;;;;20.66;61.85;101196.53;2119545;27;46923;-67
2022/10/29 03:43:07;;;;;;;;;16.33;12.33;;;;;20.66;61.76;101196.53;2117869;27;46636;-68
2022/10/29 03:44:08;;;;;;;;;15.00;13.00;;;;;20.68;61.71;101199.13;2118690;27;46761;-68
2022/10/29 03:45:09;;;;;;;;;10.33;10.00;;;;;20.67;62.02;101200.94;2114402;27;46407;-68
2022/10/29 03:46:09;;;;;;;;;11.75;10.75;;;;;20.69;62.37;101200.88;2115306;27;46653;-71
2022/10/29 03:47:09;;;;;;;;;12.00;10.67;;;;;20.69;62.09;101199.03;2115797;27;46825;-69
2022/10/29 03:48:10;;;;;;;;;13.33;13.33;;;;;20.70;62.03;101195.38;2112390;27;46368;-68
2022/10/29 03:49:10;;;;;;;;;12.00;11.33;;;;;20.71;61.67;101197.16;2118316;27;47396;-68
2022/10/29 03:50:10;;;;;;;;;9.33;9.33;;;;;20.69;62.14;101185.53;2116925;27;46387;-69
2022/10/29 03:51:11;;;;;;;;;11.67;11.67;;;;;20.70;61.93;101181.88;2110853;27;45981;-68
2022/10/29 03:52:11;;;;;;;;;14.67;12.67;;;;;20.68;61.43;101175.72;2092797;28;46638;-67
2022/10/29 03:53:11;;;;;;;;;11.67;11.33;;;;;20.67;62.06;101173.97;2099937;28;46467;-69
2022/10/29 03:54:12;;;;;;;;;8.00;8.00;;;;;20.65;62.00;101194.78;2116700;27;46118;-68
2022/10/29 03:55:12;;;;;;;;;11.00;9.67;;;;;20.63;62.08;101196.69;2120364;27;46734;-69
2022/10/29 03:56:12;;;;;;;;;13.67;11.67;;;;;20.61;62.13;101193.22;2111977;27;46459;-67
2022/10/29 03:57:13;;;;;;;;;11.67;11.67;;;;;20.61;61.56;101197.75;2111609;27;46532;-69
2022/10/29 03:58:13;;;;;;;;;14.67;12.00;;;;;20.60;62.22;101198.69;2119048;27;45463;-69
2022/10/29 03:59:13;;;;;;;;;13.00;12.67;;;;;20.59;62.25;101195.13;2112845;27;46313;-68
2022/10/29 04:00:14;;;;;;;;;10.67;10.67;;;;;20.59;62.02;101188.88;2118397;27;45603;-67
2022/10/29 04:01:14;;;;;;;;;12.00;10.00;;;;;20.60;61.67;101177.13;2114926;27;46977;-68
2022/10/29 04:02:15;;;;;;;;;11.00;11.00;;;;;20.59;61.66;101172.69;2115039;27;46252;-68
2022/10/29 04:03:15;;;;;;;;;12.33;11.67;;;;;20.58;62.05;101166.41;2121007;27;46033;-68
2022/10/29 04:04:15;;;;;;;;;11.67;10.67;;;;;20.58;61.78;101155.63;2120487;27;45546;-68
2022/10/29 04:05:16;;;;;;;;;13.00;11.00;;;;;20.59;61.58;101156.53;2113035;27;46864;-69
2022/10/29 04:06:17;;;;;;;;;10.00;9.00;;;;;20.57;61.73;101162.84;2118355;27;46396;-67
2022/10/29 04:07:18;;;;;;;;;13.00;13.00;;;;;20.56;62.04;101155.72;2124040;27;46443;-68
2022/10/29 04:08:18;;;;;;;;;12.25;10.75;;;;;20.55;61.75;101162.06;2116374;27;46647;-68
2022/10/29 04:09:19;;;;;;;;;11.00;10.00;;;;;20.54;62.19;101167.53;2111827;27;46774;-68
2022/10/29 04:10:19;;;;;;;;;11.33;11.33;;;;;20.54;61.85;101172.94;2114186;27;45545;-68
2022/10/29 04:11:19;;;;;;;;;12.67;9.33;;;;;20.54;61.53;101179.19;2117284;27;46473;-68
2022/10/29 04:12:20;;;;;;;;;12.33;12.33;;;;;20.53;62.10;101173.88;2114630;27;46808;-68
2022/10/29 04:13:20;;;;;;;;;10.00;10.00;;;;;20.53;61.85;101182.84;2114899;27;45577;-67
2022/10/29 04:14:20;;;;;;;;;9.33;9.00;;;;;20.53;61.74;101187.38;2118858;27;46610;-67
2022/10/29 04:15:20;;;;;;;;;11.67;10.33;;;;;20.53;61.93;101185.53;2122722;27;46548;-68
2022/10/29 04:16:21;;;;;;;;;9.00;8.00;;;;;20.55;61.79;101191.72;2120383;27;45309;-69
2022/10/29 04:17:21;;;;;;;;;12.33;11.67;;;;;20.55;62.14;101197.09;2121300;27;46387;-67
2022/10/29 04:18:23;;;;;;;;;12.00;10.33;;;;;20.55;61.97;101189.03;2114525;27;44921;-68
2022/10/29 04:19:23;;;;;;;;;2.25;0.75;;;;;20.56;61.56;101189.88;2118374;27;46909;-68
2022/10/29 04:20:23;;;;;;;;;11.67;10.00;;;;;20.56;62.20;101188.06;2122359;27;46644;-67
2022/10/29 04:21:24;;;;;;;;;15.33;14.33;;;;;20.57;62.14;101197.03;2109237;27;45558;-68
2022/10/29 04:22:24;;;;;;;;;14.00;12.00;;;;;20.57;61.96;101195.19;2111146;27;47390;-67
2022/10/29 04:23:25;;;;;;;;;12.00;11.00;;;;;20.59;61.46;101194.28;2121228;27;46538;-68
2022/10/29 04:24:25;;;;;;;;;8.67;8.67;;;;;20.59;61.66;101194.28;2120117;27;45024;-68
2022/10/29 04:25:25;;;;;;;;;12.00;11.00;;;;;20.59;61.75;101202.34;2115635;27;46520;-68
2022/10/29 04:26:25;;;;;;;;;8.67;8.67;;;;;20.59;61.36;101200.53;2122565;27;45484;-68
2022/10/29 04:27:27;;;;;;;;;10.67;10.67;;;;;20.58;61.96;101209.53;2118314;27;47042;-70
2022/10/29 04:28:27;;;;;;;;;13.00;12.25;;;;;20.56;61.48;101206.94;2122263;27;46385;-69
2022/10/29 04:29:28;;;;;;;;;13.67;11.67;;;;;20.56;61.87;101204.25;2117555;27;46224;-68
2022/10/29 04:30:29;;;;;;;;;12.67;11.00;;;;;20.56;61.56;101201.53;2119082;27;46019;-68
2022/10/29 04:31:29;;;;;;;;;11.33;10.67;;;;;20.57;61.67;101197.03;2113643;27;46761;-69
2022/10/29 04:32:29;;;;;;;;;9.67;9.67;;;;;20.58;61.90;101187.97;2120452;27;45913;-67
2022/10/29 04:33:29;;;;;;;;;11.67;9.67;;;;;20.57;62.11;101194.31;2118212;27;45971;-68
2022/10/29 04:34:30;;;;;;;;;11.33;11.00;;;;;20.57;61.74;101186.22;2113597;27;46299;-67
2022/10/29 04:35:30;;;;;;;;;9.67;9.67;;;;;20.55;61.99;101180.94;2118568;27;47302;-68
2022/10/29 04:36:30;;;;;;;;;14.33;11.33;;;;;20.54;61.96;101181.88;2113912;27;45120;-68
2022/10/29 04:37:31;;;;;;;;;15.33;12.67;;;;;20.52;61.28;101173.03;2121567;27;46223;-69
2022/10/29 04:38:31;;;;;;;;;12.33;11.33;;;;;20.50;61.52;101177.63;2119178;27;46878;-67
2022/10/29 04:39:31;;;;;;;;;9.67;9.67;;;;;20.50;61.85;101177.63;2114021;27;46700;-69
2022/10/29 04:40:31;;;;;;;;;12.00;10.67;;;;;20.48;62.02;101176.84;2120112;27;45838;-70
2022/10/29 04:41:32;;;;;;;;;10.33;10.33;;;;;20.46;61.86;101178.78;2121198;27;46134;-69
2022/10/29 04:42:36;;;;;;;;;12.00;12.00;;;;;20.47;61.58;101176.94;2113692;27;46419;-68
2022/10/29 04:43:36;;;;;;;;;12.75;11.75;;;;;20.45;61.97;101171.59;2118357;27;45272;-68
2022/10/29 04:44:37;;;;;;;;;14.00;12.67;;;;;20.45;61.70;101166.22;2121824;27;46289;-69
2022/10/29 04:45:37;;;;;;;;;11.00;11.00;;;;;20.45;62.07;101158.13;2122455;27;46726;-68
2022/10/29 04:46:38;;;;;;;;;10.67;10.67;;;;;20.45;61.50;101158.13;2118924;27;46245;-69
2022/10/29 04:47:38;;;;;;;;;11.00;9.33;;;;;20.46;62.01;101161.72;2122228;27;46196;-69
2022/10/29 04:48:38;;;;;;;;;13.33;11.33;;;;;20.45;61.38;101159.97;2115551;27;46753;-68
2022/10/29 04:49:38;;;;;;;;;12.00;11.33;;;;;20.44;61.97;101169.00;2116684;27;46819;-69
2022/10/29 04:50:39;;;;;;;;;9.33;9.33;;;;;20.43;61.95;101168.13;2116666;27;46262;-66
2022/10/29 04:51:39;;;;;;;;;11.00;11.00;;;;;20.42;61.88;101174.47;2117258;27;46279;-68